MDW weather

Chicago Midway International Airport
Chicago, Illinois, United States

Public forecast

Using degrees Fahrenheit for public forecast. Weather courtesy of forecast.io.

METAR (pilot weather report)

Retrieved 2017/12/10 21:53 UTC (1 hour ago):

KMDW 102153Z 32010KT 10SM SCT030 BKN037 BKN150 01/M06 A2996 RMK AO2 SLP158 T00061061

TAF (pilot weather forecast)

Retrieved 2017/12/10 18:33 UTC (4 hours ago):

TAF KMDW 101730Z 1018/1124 25012G20KT P6SM FEW035 FEW120 BKN250 FM102100 31010KT P6SM SCT025 BKN050 FM111300 21007KT P6SM -SHSN SCT025 OVC040 TEMPO 1116/1118 2SM -SHSN SCT020 BKN025 FM112100 20006KT 4SM -SHSN SCT020 OVC040 PROB30 1121/1124 2SM -SN BKN020